createdAt,value
2023-04-16T00:02:11.686Z,99089.97
2023-04-16T00:05:14.891Z,99087.41
2023-04-16T00:08:16.974Z,99084.31
2023-04-16T00:11:19.098Z,99091.09
2023-04-16T00:14:20.910Z,99086.41
2023-04-16T00:17:22.850Z,99095.38
2023-04-16T00:20:24.760Z,99087.22
2023-04-16T00:23:26.675Z,99088.53
2023-04-16T00:26:28.550Z,99091.00
2023-04-16T00:29:31.102Z,99089.63
2023-04-16T00:32:33.140Z,99091.78
2023-04-16T00:35:35.127Z,99087.44
2023-04-16T00:38:37.394Z,99100.50
2023-04-16T00:41:39.300Z,99100.84
2023-04-16T00:44:41.266Z,99099.25
2023-04-16T00:47:43.227Z,99099.84
2023-04-16T00:50:45.453Z,99103.06
2023-04-16T00:53:48.056Z,99115.03
2023-04-16T00:56:51.041Z,99104.47
2023-04-16T00:59:54.237Z,99104.66
2023-04-16T01:02:56.532Z,99103.19
2023-04-16T01:05:58.872Z,99104.16
2023-04-16T01:09:00.806Z,99103.84
2023-04-16T01:12:02.833Z,99099.75
2023-04-16T01:15:05.195Z,99106.41
2023-04-16T01:18:17.467Z,99112.34
2023-04-16T01:21:19.347Z,99100.38
2023-04-16T01:24:21.310Z,99111.84
2023-04-16T01:27:23.206Z,99118.22
2023-04-16T01:30:25.773Z,99116.16
2023-04-16T01:33:59.974Z,99113.59
2023-04-16T01:37:04.149Z,99115.06
2023-04-16T01:40:06.937Z,99118.47
2023-04-16T01:43:08.938Z,99124.75
2023-04-16T01:46:20.504Z,99123.50
2023-04-16T01:49:23.572Z,99120.53
2023-04-16T01:52:25.538Z,99117.78
2023-04-16T01:55:27.432Z,99121.78
2023-04-16T01:58:30.265Z,99120.59
2023-04-16T02:01:32.633Z,99117.97
2023-04-16T02:04:34.588Z,99122.69
2023-04-16T02:07:36.529Z,99116.31
2023-04-16T02:10:38.522Z,99126.06
2023-04-16T02:13:40.772Z,99115.66
2023-04-16T02:16:42.667Z,99116.56
2023-04-16T02:19:52.201Z,99118.94
2023-04-16T02:22:54.574Z,99118.38
2023-04-16T02:25:58.818Z,99122.19
2023-04-16T02:29:01.442Z,99111.88
2023-04-16T02:32:11.273Z,99116.50
2023-04-16T02:35:13.474Z,99117.78
2023-04-16T02:38:15.356Z,99109.69
2023-04-16T02:41:17.534Z,99109.94
2023-04-16T02:44:19.562Z,99110.19
2023-04-16T02:47:22.862Z,99115.31
2023-04-16T02:50:24.778Z,99117.78
2023-04-16T02:53:26.777Z,99114.72
2023-04-16T02:56:28.714Z,99114.91
2023-04-16T02:59:30.785Z,99123.84
2023-04-16T03:02:32.998Z,99134.50
2023-04-16T03:05:35.039Z,99126.50
2023-04-16T03:08:36.906Z,99127.47
2023-04-16T03:11:38.967Z,99140.34
2023-04-16T03:14:41.242Z,99139.47
2023-04-16T03:17:43.190Z,99135.13
2023-04-16T03:20:45.459Z,99143.75
2023-04-16T03:23:47.859Z,99147.34
2023-04-16T03:26:49.828Z,99145.84
2023-04-16T03:29:52.535Z,99151.66
2023-04-16T03:32:54.491Z,99153.81
2023-04-16T03:35:59.420Z,99163.97
2023-04-16T03:39:04.942Z,99170.97
2023-04-16T03:42:07.109Z,99166.16
2023-04-16T03:45:10.614Z,99173.88
2023-04-16T03:48:13.989Z,99161.50
2023-04-16T03:51:16.176Z,99162.78
2023-04-16T03:54:18.723Z,99165.13
2023-04-16T03:57:26.605Z,99175.63
2023-04-16T04:00:32.583Z,99175.72
2023-04-16T04:03:46.675Z,99177.34
2023-04-16T04:06:49.043Z,99187.31
2023-04-16T04:09:51.365Z,99184.78
2023-04-16T04:12:53.362Z,99195.97
2023-04-16T04:15:55.914Z,99195.53
2023-04-16T04:19:00.154Z,99208.25
2023-04-16T04:22:02.398Z,99209.03
2023-04-16T04:25:04.697Z,99209.63
2023-04-16T04:28:07.971Z,99216.50
2023-04-16T04:31:10.083Z,99216.88
2023-04-16T04:34:12.102Z,99210.75
2023-04-16T04:37:13.941Z,99221.25
2023-04-16T04:40:16.071Z,99219.06
2023-04-16T04:43:22.130Z,99219.41
2023-04-16T04:46:25.439Z,99220.44
2023-04-16T04:49:27.493Z,99218.19
2023-04-16T04:52:29.760Z,99220.09
2023-04-16T04:55:31.687Z,99225.19
2023-04-16T04:58:34.208Z,99223.28
2023-04-16T05:01:36.955Z,99228.00
2023-04-16T05:04:38.888Z,99232.06
2023-04-16T05:07:41.033Z,99224.38
2023-04-16T05:10:43.067Z,99226.75
2023-04-16T05:13:44.928Z,99234.28
2023-04-16T05:16:46.930Z,99226.25
2023-04-16T05:19:49.094Z,99225.97
2023-04-16T05:22:51.456Z,99214.06
2023-04-16T05:25:53.322Z,99228.06
2023-04-16T05:28:55.260Z,99234.09
2023-04-16T05:31:57.166Z,99232.22
2023-04-16T05:34:59.122Z,99233.88
2023-04-16T05:38:01.078Z,99232.91
2023-04-16T05:41:02.969Z,99238.84
2023-04-16T05:44:05.120Z,99239.88
2023-04-16T05:47:09.329Z,99238.22
2023-04-16T05:50:11.386Z,99240.84
2023-04-16T05:53:14.295Z,99254.38
2023-04-16T05:56:16.268Z,99249.97
2023-04-16T05:59:18.648Z,99261.91
2023-04-16T06:02:20.900Z,99264.69
2023-04-16T06:05:22.869Z,99264.09
2023-04-16T06:08:25.120Z,99274.75
2023-04-16T06:11:27.621Z,99275.09
2023-04-16T06:14:29.576Z,99278.50
2023-04-16T06:17:31.611Z,99271.28
2023-04-16T06:20:33.779Z,99283.00
2023-04-16T06:23:36.329Z,99285.13
2023-04-16T06:26:38.215Z,99274.66
2023-04-16T06:29:41.867Z,99282.19
2023-04-16T06:32:44.560Z,99266.69
2023-04-16T06:35:46.491Z,99269.56
2023-04-16T06:38:48.321Z,99271.88
2023-04-16T06:41:50.324Z,99267.06
2023-04-16T06:44:53.416Z,99275.66
2023-04-16T06:47:55.344Z,99276.88
2023-04-16T06:50:57.374Z,99276.03
2023-04-16T06:53:59.680Z,99274.91
2023-04-16T06:57:01.605Z,99279.50
2023-04-16T07:00:05.149Z,99288.44
2023-04-16T07:03:07.282Z,99286.13
2023-04-16T07:06:10.341Z,99277.19
2023-04-16T07:09:12.515Z,99284.34
2023-04-16T07:12:14.563Z,99284.44
2023-04-16T07:15:16.896Z,99289.25
2023-04-16T07:18:20.318Z,99290.84
2023-04-16T07:21:22.815Z,99288.03
2023-04-16T07:24:24.805Z,99290.28
2023-04-16T07:27:27.210Z,99286.41
2023-04-16T07:30:34.179Z,99285.09
2023-04-16T07:33:36.452Z,99283.44
2023-04-16T07:36:38.936Z,99292.09
2023-04-16T07:39:41.412Z,99292.63
2023-04-16T07:42:43.480Z,99297.09
2023-04-16T07:45:45.581Z,99292.94
2023-04-16T07:48:47.591Z,99297.91
2023-04-16T07:51:49.640Z,99285.34
2023-04-16T07:54:51.910Z,99288.94
2023-04-16T07:57:54.054Z,99290.00
2023-04-16T08:00:56.325Z,99293.66
2023-04-16T08:03:58.560Z,99291.59
2023-04-16T08:07:00.601Z,99296.13
2023-04-16T08:10:02.618Z,99292.41
2023-04-16T08:13:04.631Z,99287.63
2023-04-16T08:16:06.835Z,99285.31
2023-04-16T08:19:09.113Z,99290.88
2023-04-16T08:22:12.775Z,99293.81
2023-04-16T08:25:15.537Z,99289.81
2023-04-16T08:28:17.421Z,99292.97
2023-04-16T08:31:19.601Z,99302.75
2023-04-16T08:34:21.650Z,99288.34
2023-04-16T08:37:23.508Z,99293.72
2023-04-16T08:40:28.685Z,99294.00
2023-04-16T08:43:34.701Z,99287.09
2023-04-16T08:46:37.891Z,99291.63
2023-04-16T08:49:45.165Z,99287.78
2023-04-16T08:53:11.135Z,99286.25
2023-04-16T08:56:14.774Z,99282.47
2023-04-16T08:59:17.463Z,99276.44
2023-04-16T09:02:19.730Z,99288.63
2023-04-16T09:05:25.629Z,99291.66
2023-04-16T09:08:28.178Z,99284.72
2023-04-16T09:11:30.427Z,99293.50
2023-04-16T09:14:32.717Z,99307.03
2023-04-16T09:17:35.082Z,99304.72
2023-04-16T09:20:37.015Z,99294.41
2023-04-16T09:23:40.111Z,99302.28
2023-04-16T09:26:45.700Z,99296.25
2023-04-16T09:29:47.667Z,99298.63
2023-04-16T09:32:51.526Z,99298.41
2023-04-16T09:35:53.495Z,99304.50
2023-04-16T09:38:57.488Z,99312.44
2023-04-16T09:41:59.927Z,99301.63
2023-04-16T09:45:04.871Z,99299.28
2023-04-16T09:48:07.737Z,99303.69
2023-04-16T09:51:09.727Z,99297.78
2023-04-16T09:54:11.684Z,99300.69
2023-04-16T09:57:13.679Z,99302.03
2023-04-16T10:00:18.813Z,99300.09
2023-04-16T10:03:32.478Z,99298.28
2023-04-16T10:06:34.568Z,99290.00
2023-04-16T10:09:38.515Z,99303.56
2023-04-16T10:12:41.069Z,99296.84
2023-04-16T10:15:43.599Z,99290.41
2023-04-16T10:18:47.413Z,99293.00
2023-04-16T10:21:51.378Z,99278.16
2023-04-16T10:24:54.457Z,99285.31
2023-04-16T10:27:57.399Z,99274.09
2023-04-16T10:31:01.607Z,99270.72
2023-04-16T10:34:04.137Z,99280.50
2023-04-16T10:37:05.981Z,99275.19
2023-04-16T10:40:28.212Z,99281.75
2023-04-16T10:43:39.114Z,99267.19
2023-04-16T10:46:42.983Z,99273.16
2023-04-16T10:49:48.215Z,99272.00
2023-04-16T10:53:20.657Z,99267.47
2023-04-16T10:56:27.669Z,99272.56
2023-04-16T10:59:35.021Z,99272.47
2023-04-16T11:02:41.321Z,99262.25
2023-04-16T11:05:49.044Z,99265.44
2023-04-16T11:08:55.088Z,99258.69
2023-04-16T11:11:57.660Z,99259.81
2023-04-16T11:15:08.334Z,99263.19
2023-04-16T11:18:10.918Z,99267.03
2023-04-16T11:21:13.548Z,99266.69
2023-04-16T11:24:15.419Z,99268.25
2023-04-16T11:27:17.490Z,99259.16
2023-04-16T11:30:28.543Z,99255.56
2023-04-16T11:33:31.616Z,99254.16
2023-04-16T11:36:50.621Z,99254.66
2023-04-16T11:39:53.176Z,99247.31
2023-04-16T11:42:55.079Z,99248.88
2023-04-16T11:45:57.063Z,99246.38
2023-04-16T11:48:59.950Z,99246.09
2023-04-16T11:52:02.171Z,99245.88
2023-04-16T11:55:04.403Z,99241.81
2023-04-16T11:58:13.671Z,99243.19
2023-04-16T12:01:21.072Z,99245.56
2023-04-16T12:04:27.467Z,99247.06
2023-04-16T12:07:29.608Z,99242.00
2023-04-16T12:10:35.203Z,99231.38
2023-04-16T12:13:40.209Z,99235.66
2023-04-16T12:16:42.335Z,99233.91
2023-04-16T12:20:00.238Z,99232.59
2023-04-16T12:23:02.216Z,99231.69
2023-04-16T12:26:10.836Z,99223.38
2023-04-16T12:29:28.067Z,99223.81
2023-04-16T12:32:30.010Z,99218.19
2023-04-16T12:35:33.591Z,99210.94
2023-04-16T12:38:35.728Z,99207.13
2023-04-16T12:41:39.285Z,99205.53
2023-04-16T12:44:41.242Z,99195.97
2023-04-16T12:47:43.175Z,99199.72
2023-04-16T12:50:45.133Z,99188.06
2023-04-16T12:53:47.042Z,99194.56
2023-04-16T12:56:48.937Z,99189.47
2023-04-16T12:59:51.017Z,99181.00
2023-04-16T13:02:53.151Z,99186.34
2023-04-16T13:05:56.992Z,99180.38
2023-04-16T13:08:59.145Z,99178.44
2023-04-16T13:12:01.679Z,99177.34
2023-04-16T13:15:05.243Z,99174.47
2023-04-16T13:18:07.186Z,99173.09
2023-04-16T13:21:09.383Z,99176.69
2023-04-16T13:24:11.344Z,99161.63
2023-04-16T13:27:16.087Z,99168.78
2023-04-16T13:30:18.172Z,99172.69
2023-04-16T13:33:21.411Z,99158.50
2023-04-16T13:36:24.703Z,99163.63
2023-04-16T13:39:28.763Z,99155.03
2023-04-16T13:42:32.592Z,99159.59
2023-04-16T13:45:34.632Z,99152.47
2023-04-16T13:48:37.356Z,99155.69
2023-04-16T13:51:39.283Z,99154.59
2023-04-16T13:54:41.532Z,99143.94
2023-04-16T13:57:56.328Z,99143.16
2023-04-16T14:00:58.350Z,99137.28
2023-04-16T14:04:06.188Z,99139.16
2023-04-16T14:07:08.442Z,99142.47
2023-04-16T14:10:10.798Z,99138.06
2023-04-16T14:13:13.227Z,99139.16
2023-04-16T14:16:15.715Z,99129.00
2023-04-16T14:19:17.833Z,99135.44
2023-04-16T14:22:21.128Z,99127.25
2023-04-16T14:25:23.843Z,99126.50
2023-04-16T14:28:26.049Z,99126.47
2023-04-16T14:31:28.445Z,99118.81
2023-04-16T14:34:30.554Z,99117.69
2023-04-16T14:37:35.857Z,99104.72
2023-04-16T14:40:38.375Z,99119.94
2023-04-16T14:43:41.429Z,99112.28
2023-04-16T14:46:43.826Z,99113.81
2023-04-16T14:49:45.811Z,99111.72
2023-04-16T14:52:47.862Z,99104.16
2023-04-16T14:55:51.921Z,99110.38
2023-04-16T14:58:53.857Z,99104.91
2023-04-16T15:01:59.210Z,99105.00
2023-04-16T15:05:01.511Z,99106.69
2023-04-16T15:08:03.926Z,99099.69
2023-04-16T15:11:06.034Z,99094.84
2023-04-16T15:14:08.192Z,99105.81
2023-04-16T15:17:10.318Z,99090.81
2023-04-16T15:20:12.811Z,99094.59
2023-04-16T15:23:14.738Z,99089.13
2023-04-16T15:26:16.858Z,99100.88
2023-04-16T15:29:18.804Z,99091.47
2023-04-16T15:32:21.143Z,99098.09
2023-04-16T15:35:24.820Z,99093.22
2023-04-16T15:38:28.669Z,99093.16
2023-04-16T15:41:32.011Z,99100.03
2023-04-16T15:44:34.722Z,99091.59
2023-04-16T15:47:37.989Z,99086.84
2023-04-16T15:50:41.945Z,99089.63
2023-04-16T15:53:45.337Z,99091.97
2023-04-16T15:56:47.615Z,99082.63
2023-04-16T16:00:05.369Z,99086.25
2023-04-16T16:06:27.189Z,99084.06
2023-04-16T16:09:31.594Z,99075.69
2023-04-16T16:12:33.766Z,99085.00
2023-04-16T16:15:35.976Z,99085.00
2023-04-16T16:18:38.158Z,99083.00
2023-04-16T16:21:40.085Z,99075.00
2023-04-16T16:24:42.295Z,99073.22
2023-04-16T16:27:44.650Z,99068.63
2023-04-16T16:30:47.530Z,99079.25
2023-04-16T16:33:49.969Z,99077.03
2023-04-16T16:36:51.995Z,99076.78
2023-04-16T16:39:54.040Z,99075.00
2023-04-16T16:42:56.147Z,99077.97
2023-04-16T16:45:58.324Z,99080.47
2023-04-16T16:49:00.993Z,99081.88
2023-04-16T16:52:03.130Z,99078.81
2023-04-16T16:55:08.695Z,99083.84
2023-04-16T16:58:11.266Z,99088.09
2023-04-16T17:01:13.751Z,99091.59
2023-04-16T17:04:17.168Z,99085.06
2023-04-16T17:10:36.454Z,99089.47
2023-04-16T17:13:39.627Z,99100.59
2023-04-16T17:16:41.746Z,99099.38
2023-04-16T17:19:44.257Z,99099.81
2023-04-16T17:22:46.320Z,99098.88
2023-04-16T17:25:48.585Z,99099.69
2023-04-16T17:28:51.065Z,99105.13
2023-04-16T17:31:53.900Z,99110.47
2023-04-16T17:34:56.394Z,99109.38
2023-04-16T17:37:58.578Z,99109.50
2023-04-16T17:41:00.561Z,99109.38
2023-04-16T17:44:02.909Z,99110.56
2023-04-16T17:47:05.291Z,99109.47
2023-04-16T17:50:11.484Z,99116.03
2023-04-16T17:53:13.662Z,99113.88
2023-04-16T17:56:15.951Z,99118.75
2023-04-16T17:59:17.942Z,99116.72
2023-04-16T18:02:20.538Z,99122.25
2023-04-16T18:05:33.070Z,99123.09
2023-04-16T18:08:36.991Z,99110.63
2023-04-16T18:11:39.574Z,99122.50
2023-04-16T18:14:44.723Z,99125.53
2023-04-16T18:17:47.093Z,99122.97
2023-04-16T18:20:49.425Z,99126.28
2023-04-16T18:23:51.481Z,99131.09
2023-04-16T18:26:55.135Z,99123.44
2023-04-16T18:29:57.497Z,99127.81
2023-04-16T18:33:26.344Z,99115.44
2023-04-16T18:36:22.530Z,99119.44
2023-04-16T18:39:24.620Z,99126.81
2023-04-16T18:42:29.616Z,99130.25
2023-04-16T18:45:34.299Z,99121.34
2023-04-16T18:48:36.901Z,99122.03
2023-04-16T18:51:40.106Z,99129.84
2023-04-16T18:54:42.320Z,99119.03
2023-04-16T18:57:44.162Z,99116.72
2023-04-16T19:00:46.664Z,99112.75
2023-04-16T19:03:48.963Z,99111.19
2023-04-16T19:06:51.173Z,99119.66
2023-04-16T19:09:53.398Z,99118.97
2023-04-16T19:12:58.339Z,99112.63
2023-04-16T19:16:01.646Z,99115.84
2023-04-16T19:19:03.712Z,99114.63
2023-04-16T19:22:05.617Z,99108.44
2023-04-16T19:25:08.188Z,99113.59
2023-04-16T19:28:10.346Z,99107.00
2023-04-16T19:31:12.570Z,99115.53
2023-04-16T19:34:15.572Z,99103.56
2023-04-16T19:37:17.511Z,99111.19
2023-04-16T19:40:19.642Z,99108.41
2023-04-16T19:43:21.597Z,99097.94
2023-04-16T19:46:24.060Z,99101.19
2023-04-16T19:49:26.342Z,99091.06
2023-04-16T19:52:29.053Z,99102.31
2023-04-16T19:55:31.290Z,99088.94
2023-04-16T19:58:33.534Z,99092.97
2023-04-16T20:01:36.025Z,99089.09
2023-04-16T20:04:38.423Z,99087.91
2023-04-16T20:07:40.760Z,99077.28
2023-04-16T20:10:42.764Z,99083.72
2023-04-16T20:13:48.185Z,99090.56
2023-04-16T20:16:50.324Z,99087.03
2023-04-16T20:19:52.736Z,99090.38
2023-04-16T20:22:55.256Z,99080.13
2023-04-16T20:25:57.309Z,99095.81
2023-04-16T20:29:02.884Z,99088.72
2023-04-16T20:32:05.863Z,99081.84
2023-04-16T20:35:10.778Z,99085.72
2023-04-16T20:38:13.152Z,99089.81
2023-04-16T20:41:21.058Z,99098.13
2023-04-16T20:44:40.280Z,99101.25
2023-04-16T20:47:43.481Z,99100.19
2023-04-16T20:50:46.018Z,99095.56
2023-04-16T20:53:47.871Z,99087.47
2023-04-16T20:56:50.415Z,99097.63
2023-04-16T20:59:52.505Z,99096.94
2023-04-16T21:02:54.878Z,99087.81
2023-04-16T21:05:56.907Z,99091.63
2023-04-16T21:08:59.117Z,99089.66
2023-04-16T21:12:01.785Z,99080.75
2023-04-16T21:15:04.827Z,99095.00
2023-04-16T21:18:07.694Z,99086.84
2023-04-16T21:21:09.659Z,99098.47
2023-04-16T21:24:11.614Z,99078.31
2023-04-16T21:27:13.483Z,99094.94
2023-04-16T21:30:15.851Z,99079.72
2023-04-16T21:33:17.803Z,99073.22
2023-04-16T21:36:19.822Z,99083.19
2023-04-16T21:39:22.104Z,99082.94
2023-04-16T21:42:24.275Z,99083.28
2023-04-16T21:45:26.242Z,99094.16
2023-04-16T21:48:28.641Z,99094.94
2023-04-16T21:51:30.579Z,99100.97
2023-04-16T21:54:32.403Z,99094.06
2023-04-16T21:57:34.422Z,99088.97
2023-04-16T22:00:36.395Z,99091.00
2023-04-16T22:03:40.487Z,99078.53
2023-04-16T22:06:43.157Z,99083.94
2023-04-16T22:09:45.033Z,99088.03
2023-04-16T22:12:46.914Z,99093.81
2023-04-16T22:15:48.737Z,99084.03
2023-04-16T22:18:51.168Z,99094.91
2023-04-16T22:21:53.101Z,99102.28
2023-04-16T22:24:54.985Z,99102.28
2023-04-16T22:27:56.862Z,99093.94
2023-04-16T22:30:58.795Z,99087.13
2023-04-16T22:34:02.847Z,99097.59
2023-04-16T22:37:06.132Z,99088.53
2023-04-16T22:40:09.787Z,99070.56
2023-04-16T22:43:11.794Z,99088.91
2023-04-16T22:46:13.646Z,99118.22
2023-04-16T22:49:15.537Z,99093.50
2023-04-16T22:52:17.407Z,99085.13
2023-04-16T22:55:19.471Z,99092.34
2023-04-16T22:58:21.927Z,99099.53
2023-04-16T23:01:24.453Z,99108.25
2023-04-16T23:04:26.497Z,99097.41
2023-04-16T23:07:28.485Z,99090.00
2023-04-16T23:10:30.325Z,99076.63
2023-04-16T23:13:32.373Z,99090.69
2023-04-16T23:16:34.232Z,99077.41
2023-04-16T23:19:36.231Z,99079.91
2023-04-16T23:22:38.312Z,99086.34
2023-04-16T23:25:41.378Z,99076.72
2023-04-16T23:28:43.220Z,99088.72
2023-04-16T23:31:45.108Z,99087.31
2023-04-16T23:34:47.174Z,99080.84
2023-04-16T23:37:49.491Z,99073.69
2023-04-16T23:40:51.627Z,99083.19
2023-04-16T23:43:53.858Z,99088.09
2023-04-16T23:46:55.719Z,99080.59
2023-04-16T23:49:57.716Z,99080.72
2023-04-16T23:52:59.691Z,99086.00
2023-04-16T23:56:01.592Z,99084.59
2023-04-16T23:59:03.514Z,99082.13
